Nearby METAR Reports

(scroll for additional cities)

 

KPSP - Palm Springs, California, USA
Distance from station: WNW 7mi, 11km
Updated: Mon, 10-Aug-2020 1:53pm PDT
Clear
Clear
 Wind from E
Wind: E 7 mph , 11 km/h
Temperature: 108°F , 42°C
Dew Point: 37°F , 3°C
Humidity: 9%
Barometer: 29.80 inHg , 1009.1 hPa
Clouds: Clear
Visibility: 10 miles , 16 km
2020/08/10 20:53 KPSP 102053Z 08006KT 10SM CLR 42/03 A2980 RMK AO2 SLP086 T04220033 58014
KTRM - Thermal/Palm Spg, California, USA
Distance from station: SE 16mi, 26km
Updated: Mon, 10-Aug-2020 1:52pm PDT
Clear
Clear
 Wind from SE
Wind: SE 9 mph , 15 km/h
Temperature: 109°F , 43°C
Dew Point: 37°F , 3°C
Humidity: 8%
Barometer: 29.74 inHg , 1007.1 hPa
Clouds: Clear
Visibility: 10 miles , 16 km
2020/08/10 20:52 KTRM 102052Z AUTO 13008KT 100V160 10SM CLR 43/03 A2974 RMK AO2 SLP073 T04280033 58019
 
KNXP - Twentynine Palms, California, USA
Distance from station: NNE 37mi, 60km
Updated: Mon, 10-Aug-2020 1:56pm PDT
Clear
Clear
 Wind from varies
Wind: varies 6 mph , 9 km/h, Gust: 17 mph , 28 km/h
Temperature: 104°F , 40°C
Dew Point: 21°F , -6°C
Humidity: 5%
Barometer: 29.95 inHg , 1014.2 hPa
Clouds: Clear
Visibility: 10 miles , 16 km
2020/08/10 20:56 KNXP 102056Z AUTO VRB05G15KT 10SM CLR 40/M06 A2995 RMK AO2 SLP099 T04001061 58019
KL35 - Big Bear City, California, USA
Distance from station: NW 43mi, 69km
Updated: Mon, 10-Aug-2020 1:55pm PDT
Clear
Clear
 Wind from SE
Wind: SE 6 mph , 9 km/h, Gust: 17 mph , 28 km/h
Temperature: 79°F , 26°C
Dew Point: 10°F , -12°C
Humidity: 7%
Barometer: 30.28 inHg , 1025.4 hPa
Clouds: Clear
Visibility: 7 miles , 11 km
2020/08/10 20:55 KL35 102055Z AUTO 14005G15KT 7SM CLR 26/M12 A3028 RMK AO2
 
KF70 - Murrieta/Temecula, California, USA
Distance from station: WSW 45mi, 73km
Updated: Mon, 10-Aug-2020 2:15pm PDT
Clear
Clear
 Wind from SSW
Wind: SSW 10 mph , 17 km/h
Temperature: 93°F , 34°C
Dew Point: 37°F , 3°C
Humidity: 14%
Barometer: 29.93 inHg , 1013.5 hPa
Clouds: Clear
Visibility: 10 miles , 16 km
2020/08/10 21:15 KF70 102115Z AUTO 20009KT 10SM CLR 34/03 A2993 RMK AO1
KRIV - Riverside/March, California, USA
Distance from station: W 51mi, 82km
Updated: Mon, 10-Aug-2020 1:58pm PDT
Clear
Clear
 Wind from NW
Wind: NW 12 mph , 19 km/h
Temperature: 93°F , 34°C
Dew Point: 52°F , 11°C
Humidity: 24%
Barometer: 29.93 inHg , 1013.5 hPa
Clouds: Clear
Visibility: 10 miles , 16 km
2020/08/10 20:58 KRIV 102058Z AUTO 31010KT 10SM CLR 34/11 A2993 RMK AO2 SLP121 57008
 
KSBD - San Bernardino, California, USA
Distance from station: WNW 54mi, 86km
Updated: Mon, 10-Aug-2020 1:59pm PDT
Clear
Clear
 Wind from W
Wind: W 10 mph , 17 km/h
Temperature: 95°F , 35°C
Dew Point: 41°F , 5°C
Humidity: 15%
Barometer: 29.92 inHg , 1013.2 hPa
Clouds: Clear
Visibility: 7 miles , 11 km
2020/08/10 20:59 KSBD 102059Z 28009KT 7SM SKC 35/05 A2992
KRNM - Ramona, California, USA
Distance from station: SSW 60mi, 96km
Updated: Mon, 10-Aug-2020 1:53pm PDT
Clear
Clear
 Wind from NW
Wind: NW 14 mph , 22 km/h
Temperature: 91°F , 33°C
Dew Point: 57°F , 14°C
Humidity: 32%
Barometer: 29.94 inHg , 1013.9 hPa
Clouds: Clear
Visibility: 10 miles , 16 km
2020/08/10 20:53 KRNM 102053Z 31012KT 10SM CLR 33/14 A2994 RMK AO2 SLP122 T03280139 58013
 
KRAL - Riverside, California, USA
Distance from station: W 62mi, 100km
Updated: Mon, 10-Aug-2020 1:53pm PDT
Clear
Clear
 Wind from W
Wind: W 12 mph , 19 km/h, Gust: 21 mph , 33 km/h
Temperature: 91°F , 33°C
Dew Point: 54°F , 12°C
Humidity: 28%
Barometer: 29.91 inHg , 1012.9 hPa
Clouds: Clear
Visibility: 10 miles , 16 km
2020/08/10 20:53 KRAL 102053Z 28010G18KT 260V330 10SM CLR 33/12 A2991 RMK AO2 SLP110 T03280122 58012
KOKB - Oceanside, California, USA
Distance from station: SW 68mi, 109km
Updated: Mon, 10-Aug-2020 1:52pm PDT
Clear
Clear
 Wind from WSW
Wind: WSW 14 mph , 22 km/h
Temperature: 75°F , 24°C
Dew Point: 63°F , 17°C
Humidity: 65%
Barometer: 29.92 inHg , 1013.2 hPa
Clouds: Clear
Visibility: 7 miles , 11 km
2020/08/10 20:52 KOKB 102052Z AUTO 25012KT 7SM CLR 24/17 A2992 RMK AO2 SLP130 T02440172 58015
 
KONT - Ontario, California, USA
Distance from station: WNW 71mi, 114km
Updated: Mon, 10-Aug-2020 1:53pm PDT
Clear
Clear
 Wind from WSW
Wind: WSW 13 mph , 20 km/h
Temperature: 91°F , 33°C
Dew Point: 52°F , 11°C
Humidity: 26%
Barometer: 29.92 inHg , 1013.2 hPa
Clouds: Clear
Visibility: 10 miles , 16 km
2020/08/10 20:53 KONT 102053Z 25011KT 10SM CLR 33/11 A2992 RMK AO2 SLP112 T03330111 58011
KNJK - El Centro Naf, California, USA
Distance from station: SSE 78mi, 126km
Updated: Mon, 10-Aug-2020 1:56pm PDT
Few Clouds
Few Clouds
 Wind from SSE
Wind: SSE 3 mph , 6 km/h
Temperature: 109°F , 43°C
Dew Point: 43°F , 6°C
Humidity: 10%
Barometer: 29.78 inHg , 1008.5 hPa
Clouds: Few Clouds
Visibility: 10 miles , 16 km
Cloud details: Few Clouds 16000 ft
2020/08/10 20:56 KNJK 102056Z 15003KT 10SM FEW160 43/06 A2978 RMK SLP101 T04280061 56021
 
KSEE - San Diego/Santee, California, USA
Distance from station: SSW 74mi, 120km
Updated: Mon, 10-Aug-2020 1:47pm PDT
Clear
Clear
 Wind from W
Wind: W 10 mph , 17 km/h
Temperature: 88°F , 31°C
Dew Point: 57°F , 14°C
Humidity: 35%
Barometer: 29.91 inHg , 1012.9 hPa
Clouds: Clear
Visibility: 10 miles , 16 km
2020/08/10 20:47 KSEE 102047Z 28009KT 10SM SKC 31/14 A2991
KCNO - Chino, California, USA
Distance from station: W 72mi, 116km
Updated: Mon, 10-Aug-2020 1:53pm PDT
Clear
Clear
 Wind from W
Wind: W 10 mph , 17 km/h
Temperature: 93°F , 34°C
Dew Point: 54°F , 12°C
Humidity: 26%
Barometer: 29.92 inHg , 1013.2 hPa
Clouds: Clear
Visibility: 10 miles , 16 km
2020/08/10 20:53 KCNO 102053Z 27009KT 10SM CLR 34/12 A2992 RMK AO2 SLP124 T03440122 58012

Metar display script from Saratoga-Weather.org